createdAt,value
2018-12-08T00:00:23.318Z,91.778564
2018-12-08T00:05:46.111Z,93.267822
2018-12-08T00:11:08.804Z,93.994141
2018-12-08T00:16:32.160Z,93.994141
2018-12-08T00:21:55.162Z,94.158936
2018-12-08T00:27:18.371Z,93.743896
2018-12-08T00:32:41.257Z,93.951416
2018-12-08T00:38:04.538Z,94.885254
2018-12-08T00:43:27.699Z,95.08667
2018-12-08T00:48:50.381Z,94.32373
2018-12-08T00:54:13.326Z,93.658447
2018-12-08T00:59:36.092Z,93.658447
2018-12-08T01:04:58.850Z,93.389893
2018-12-08T01:10:21.515Z,93.493652
2018-12-08T01:15:44.157Z,94.012451
2018-12-08T01:21:06.919Z,94.219971
2018-12-08T01:26:29.911Z,94.116211
2018-12-08T01:31:52.900Z,93.035889
2018-12-08T01:37:15.862Z,92.419434
2018-12-08T01:42:38.978Z,91.900635
2018-12-08T01:48:01.661Z,92.254639
2018-12-08T01:53:24.384Z,91.52832
2018-12-08T01:58:47.095Z,91.113281
2018-12-08T02:04:09.932Z,91.467285
2018-12-08T02:09:32.589Z,92.810059
2018-12-08T02:14:55.288Z,91.63208
2018-12-08T02:20:19.363Z,90.802002
2018-12-08T02:25:42.397Z,91.63208
2018-12-08T02:31:05.169Z,91.424561
2018-12-08T02:36:27.809Z,91.63208
2018-12-08T02:41:50.765Z,90.905762
2018-12-08T02:47:13.820Z,90.704346
2018-12-08T02:52:36.482Z,90.802002
2018-12-08T02:57:59.913Z,89.935303
2018-12-08T03:03:22.659Z,90.246582
2018-12-08T03:08:46.907Z,89.831543
2018-12-08T03:14:09.933Z,89.416504
2018-12-08T03:19:34.253Z,90.600586
2018-12-08T03:24:56.938Z,89.147949
2018-12-08T03:30:19.591Z,89.416504
2018-12-08T03:35:42.219Z,90.039062
2018-12-08T03:41:04.853Z,89.520264
2018-12-08T03:46:27.595Z,90.454102
2018-12-08T03:51:50.060Z,89.935303
2018-12-08T03:57:12.663Z,89.624023
2018-12-08T04:02:35.918Z,88.903809
2018-12-08T04:07:58.601Z,88.446045
2018-12-08T04:13:21.225Z,88.238525
2018-12-08T04:18:43.912Z,88.757324
2018-12-08T04:24:06.543Z,88.342285
2018-12-08T04:29:29.447Z,88.140869
2018-12-08T04:34:53.071Z,89.276123
2018-12-08T04:40:15.817Z,89.587402
2018-12-08T04:45:38.536Z,88.757324
2018-12-08T04:51:01.720Z,88.513184
2018-12-08T04:56:24.349Z,89.172363
2018-12-08T05:01:47.540Z,88.409424
2018-12-08T05:07:10.421Z,87.335205
2018-12-08T05:12:33.328Z,88.677979
2018-12-08T05:17:56.699Z,88.15918
2018-12-08T05:23:19.291Z,87.95166
2018-12-08T05:28:41.925Z,87.5
2018-12-08T05:34:04.801Z,87.29248
2018-12-08T05:39:27.840Z,87.915039
2018-12-08T05:44:50.806Z,88.427734
2018-12-08T05:50:13.690Z,88.116455
2018-12-08T05:55:36.352Z,87.664795
2018-12-08T06:00:59.507Z,88.079834
2018-12-08T06:06:22.147Z,88.323975
2018-12-08T06:11:46.756Z,87.561035
2018-12-08T06:17:09.620Z,88.220215
2018-12-08T06:22:32.256Z,88.739014
2018-12-08T06:27:54.888Z,89.154053
2018-12-08T06:33:18.837Z,90.490723
2018-12-08T06:38:41.470Z,89.666748
2018-12-08T06:44:04.526Z,89.874268
2018-12-08T06:49:27.449Z,90.386963
2018-12-08T06:54:50.059Z,92.248535
2018-12-08T07:00:12.777Z,91.833496
2018-12-08T07:05:37.361Z,92.144775
2018-12-08T07:10:59.985Z,92.76123
2018-12-08T07:16:22.632Z,92.352295
2018-12-08T07:21:45.212Z,92.352295
2018-12-08T07:27:08.345Z,90.966797
2018-12-08T07:32:38.637Z,92.102051
2018-12-08T07:37:54.612Z,92.96875
2018-12-08T07:43:17.412Z,93.280029
2018-12-08T07:48:40.226Z,93.07251
2018-12-08T07:54:03.543Z,92.718506
2018-12-08T07:59:26.717Z,92.510986
2018-12-08T08:04:49.380Z,94.372559
2018-12-08T08:10:12.444Z,95.031738
2018-12-08T08:15:35.914Z,96.685791
2018-12-08T08:20:59.102Z,97.65625
2018-12-08T08:26:21.956Z,99.310303
2018-12-08T08:31:44.765Z,98.999023
2018-12-08T08:37:09.511Z,96.478271
2018-12-08T08:42:31.510Z,97.76001
2018-12-08T08:47:54.576Z,96.990967
2018-12-08T08:53:17.299Z,97.198486
2018-12-08T08:58:39.992Z,97.65625
2018-12-08T09:04:02.733Z,97.613525
2018-12-08T09:09:25.640Z,97.302246
2018-12-08T09:14:48.724Z,95.916748
2018-12-08T09:20:11.568Z,96.582031
2018-12-08T09:25:37.105Z,98.33374
2018-12-08T09:30:59.969Z,97.821045
2018-12-08T09:36:23.380Z,98.64502
2018-12-08T09:41:48.306Z,98.64502
2018-12-08T09:47:11.495Z,99.822998
2018-12-08T09:52:34.324Z,99.993896
2018-12-08T09:57:56.975Z,99.993896
2018-12-08T10:03:19.888Z,99.993896
2018-12-08T10:08:52.823Z,99.993896
2018-12-08T10:14:26.341Z,99.993896
2018-12-08T10:19:49.560Z,99.993896
2018-12-08T10:25:24.097Z,99.993896
2018-12-08T10:30:48.032Z,99.993896
2018-12-08T10:36:11.387Z,99.993896
2018-12-08T10:41:34.171Z,99.993896
2018-12-08T10:46:57.781Z,99.993896
2018-12-08T10:52:20.513Z,99.993896
2018-12-08T10:57:44.226Z,99.584961
2018-12-08T11:03:07.143Z,99.993896
2018-12-08T11:08:30.117Z,99.993896
2018-12-08T11:13:53.567Z,99.743652
2018-12-08T11:19:16.391Z,97.53418
2018-12-08T11:24:39.425Z,96.826172
2018-12-08T11:30:02.340Z,95.697021
2018-12-08T11:35:25.299Z,96.575928
2018-12-08T11:40:47.965Z,93.859863
2018-12-08T11:46:11.573Z,95.550537
2018-12-08T11:51:34.288Z,92.315674
2018-12-08T11:56:57.555Z,93.609619
2018-12-08T12:02:20.466Z,93.035889
2018-12-08T12:07:43.126Z,94.311523
2018-12-08T12:13:05.870Z,95.080566
2018-12-08T12:18:28.541Z,94.927979
2018-12-08T12:23:51.301Z,92.114258
2018-12-08T12:29:14.096Z,93.756104
2018-12-08T12:34:36.977Z,95.178223
2018-12-08T12:39:59.752Z,98.21167
2018-12-08T12:45:22.607Z,98.10791
2018-12-08T12:50:45.378Z,98.21167
2018-12-08T12:56:08.043Z,97.387695
2018-12-08T13:01:30.689Z,95.281982
2018-12-08T13:06:53.337Z,96.002197
2018-12-08T13:12:16.225Z,95.898438
2018-12-08T13:17:38.963Z,94.006348
2018-12-08T13:23:01.549Z,94.665527
2018-12-08T13:28:24.169Z,94.299316
2018-12-08T13:33:47.663Z,93.988037
2018-12-08T13:39:10.347Z,94.091797
2018-12-08T13:44:33.057Z,93.841553
2018-12-08T13:49:55.702Z,93.536377
2018-12-08T13:55:18.686Z,91.229248
2018-12-08T14:00:42.304Z,91.229248
2018-12-08T14:06:05.106Z,91.436768
2018-12-08T14:11:27.846Z,90.509033
2018-12-08T14:16:50.622Z,91.638184
2018-12-08T14:22:13.292Z,90.197754
2018-12-08T14:27:36.180Z,91.784668
2018-12-08T14:32:59.088Z,91.021729
2018-12-08T14:38:21.863Z,89.892578
2018-12-08T14:43:44.516Z,89.172363
2018-12-08T14:49:07.284Z,88.348389
2018-12-08T14:54:29.940Z,90.856934
2018-12-08T14:59:52.712Z,89.172363
2018-12-08T15:05:15.561Z,91.168213
2018-12-08T15:10:38.388Z,88.592529
2018-12-08T15:16:01.038Z,88.287354
2018-12-08T15:21:23.697Z,88.391113
2018-12-08T15:26:47.139Z,89.312744
2018-12-08T15:32:10.048Z,87.976074
2018-12-08T15:37:32.818Z,87.670898
2018-12-08T15:42:55.811Z,88.183594
2018-12-08T15:48:19.691Z,86.950684
2018-12-08T15:53:42.744Z,87.731934
2018-12-08T15:59:05.957Z,84.954834
2018-12-08T16:04:28.992Z,87.115479
2018-12-08T16:09:51.317Z,84.710693
2018-12-08T16:15:14.858Z,84.643555
2018-12-08T16:20:37.725Z,85.467529
2018-12-08T16:26:00.744Z,85.467529
2018-12-08T16:31:23.770Z,83.618164
2018-12-08T16:36:46.881Z,84.747314
2018-12-08T16:42:10.191Z,84.0271
2018-12-08T16:47:35.672Z,83.270264
2018-12-08T16:52:58.504Z,82.861328
2018-12-08T16:58:21.402Z,82.550049
2018-12-08T17:03:44.118Z,84.0271
2018-12-08T17:09:06.727Z,84.234619
2018-12-08T17:14:29.394Z,84.954834
2018-12-08T17:19:53.148Z,84.954834
2018-12-08T17:25:15.940Z,84.539795
2018-12-08T17:30:39.619Z,84.954834
2018-12-08T17:36:03.690Z,85.095215
2018-12-08T17:41:26.308Z,85.406494
2018-12-08T17:46:49.880Z,84.47876
2018-12-08T17:52:12.465Z,83.410645
2018-12-08T17:57:35.453Z,84.375
2018-12-08T18:02:59.391Z,83.825684
2018-12-08T18:08:22.154Z,83.618164
2018-12-08T18:13:45.534Z,83.306885
2018-12-08T18:19:08.306Z,83.514404
2018-12-08T18:24:32.060Z,83.203125
2018-12-08T18:29:54.745Z,84.338379
2018-12-08T18:35:17.600Z,84.0271
2018-12-08T18:40:40.705Z,83.92334
2018-12-08T18:46:03.816Z,83.92334
2018-12-08T18:51:26.461Z,84.338379
2018-12-08T18:56:49.329Z,84.851074
2018-12-08T19:02:12.644Z,85.675049
2018-12-08T19:07:35.300Z,86.248779
2018-12-08T19:12:58.931Z,90.612793
2018-12-08T19:18:21.581Z,95.697021
2018-12-08T19:23:44.508Z,98.31543
2018-12-08T19:29:07.120Z,99.993896
2018-12-08T19:34:29.894Z,99.993896
2018-12-08T19:39:52.760Z,99.993896
2018-12-08T19:45:15.777Z,99.993896
2018-12-08T19:50:38.621Z,99.993896
2018-12-08T19:56:02.242Z,99.993896
2018-12-08T20:01:24.904Z,99.993896
2018-12-08T20:06:47.513Z,99.993896
2018-12-08T20:12:10.451Z,99.993896
2018-12-08T20:17:35.305Z,99.993896
2018-12-08T20:22:58.097Z,99.993896
2018-12-08T20:28:21.643Z,99.993896
2018-12-08T20:33:44.548Z,99.993896
2018-12-08T20:39:07.307Z,99.993896
2018-12-08T20:44:30.560Z,99.993896
2018-12-08T20:49:55.447Z,99.993896
2018-12-08T20:55:18.332Z,99.993896
2018-12-08T21:00:41.501Z,99.993896
2018-12-08T21:06:12.522Z,99.993896
2018-12-08T21:11:35.557Z,99.993896
2018-12-08T21:16:58.491Z,99.261475
2018-12-08T21:22:21.881Z,99.822998
2018-12-08T21:27:44.660Z,99.926758
2018-12-08T21:33:07.751Z,98.175049
2018-12-08T21:38:30.904Z,97.003174
2018-12-08T21:43:53.883Z,96.734619
2018-12-08T21:49:16.998Z,95.562744
2018-12-08T21:54:41.087Z,95.050049
2018-12-08T22:00:04.170Z,94.946289
2018-12-08T22:05:27.446Z,93.505859
2018-12-08T22:10:50.382Z,94.73877
2018-12-08T22:16:13.272Z,95.709229
2018-12-08T22:21:38.231Z,97.454834
2018-12-08T22:27:01.178Z,98.223877
2018-12-08T22:32:24.068Z,97.607422
2018-12-08T22:37:47.722Z,98.632812
2018-12-08T22:43:11.508Z,98.016357
2018-12-08T22:48:34.222Z,97.558594
2018-12-08T22:53:56.951Z,96.484375
2018-12-08T22:59:19.558Z,97.412109
2018-12-08T23:04:42.520Z,96.484375
2018-12-08T23:10:05.235Z,93.774414
2018-12-08T23:15:27.880Z,92.028809
2018-12-08T23:20:52.623Z,94.781494
2018-12-08T23:26:16.352Z,94.299316
2018-12-08T23:31:39.053Z,96.75293
2018-12-08T23:37:01.749Z,97.521973
2018-12-08T23:42:24.571Z,98.394775
2018-12-08T23:47:47.520Z,99.938965
2018-12-08T23:53:10.629Z,99.993896
2018-12-08T23:58:34.112Z,99.993896
